Nearby METAR Reports

 

KCOS - Colorado Springs, Colorado, USA
Distance from station: S 6mi, 9km
Updated: 12/05/2020 3:54am
Clear
Clear
 Wind from NW
Wind: NW 12 mph , 19 km/h
Temperature: 37°F , 3°C
Wind Chill: 29°F , -2°C
Dew Point: 12°F , -11°C
Humidity: 35%
Barometer: 30.40 inHg , 1029.5 hPa
Clouds: Clear
Visibility: 10 miles , 16 km
2020/12/05 10:54 KCOS 051054Z 32010KT 10SM CLR 03/M11 A3040 RMK AO2 SLP275 T00331111
KAFF - Usaf Academy/Cos, Colorado, USA
Distance from station: NW 7mi, 12km
Updated: 12/05/2020 2:58am
Clear
Clear
 Wind from N
Wind: N 13 mph , 20 km/h
Temperature: 28°F , -2°C
Wind Chill: 17°F , -8°C
Dew Point: 10°F , -12°C
Humidity: 47%
Barometer: 30.40 inHg , 1029.5 hPa
Clouds: Clear
Visibility: 10 miles , 16 km
2020/12/05 09:58 KAFF 050958Z AUTO 01011KT 10SM CLR M02/M12 A3040 RMK AO2 SLP289 T10221123
 
KFLY - Co Spngs Meadow, Colorado, USA
Distance from station: ENE 8mi, 13km
Updated: 12/05/2020 3:55am
Clear
Clear
 Wind from N
Wind: N 20 mph , 31 km/h, Gust: 26 mph , 43 km/h
Temperature: 37°F , 3°C
Wind Chill: 27°F , -3°C
Dew Point: 9°F , -13°C
Humidity: 30%
Barometer: 30.40 inHg , 1029.5 hPa
Clouds: Clear
Visibility: 10 miles , 16 km
2020/12/05 10:55 KFLY 051055Z AUTO 36017G23KT 10SM CLR 03/M13 A3040 RMK AO2 T00251135
KFCS - Fort Carson, Colorado, USA
Distance from station: S 17mi, 27km
Updated: 12/05/2020 3:58am
Clear
Clear
 Wind from NNW
Wind: NNW 5 mph , 7 km/h
Temperature: 28°F , -2°C
Wind Chill: 22°F , -6°C
Dew Point: 9°F , -13°C
Humidity: 43%
Barometer: 30.39 inHg , 1029.1 hPa
Clouds: Clear
Visibility: 10 miles , 16 km
2020/12/05 10:58 KFCS 051058Z AUTO 33004KT 10SM CLR M02/M13 A3039 RMK AO2 SLP315 T10191134 $
 
KMNH - Monument/Elbert, Colorado, USA
Distance from station: N 22mi, 35km
Updated: 12/05/2020 3:55am
Clear
Clear
 Wind from WNW
Wind: WNW 6 mph , 9 km/h
Temperature: 27°F , -3°C
Wind Chill: 20°F , -7°C
Dew Point: 10°F , -12°C
Humidity: 50%
Barometer: 30.44 inHg , 1030.8 hPa
Clouds: Clear
Visibility: 10 miles , 16 km
2020/12/05 10:55 KMNH 051055Z AUTO 30005KT 10SM CLR M03/M12 A3044 RMK AO2
K1V6 - Canon City, Colorado, USA
Distance from station: SSW 39mi, 62km
Updated: 12/05/2020 3:55am
Clear
Clear
 Wind from WNW
Wind: WNW 10 mph , 17 km/h
Temperature: 32°F , 0°C
Wind Chill: 24°F , -4°C
Dew Point: 12°F , -11°C
Humidity: 44%
Barometer: 30.40 inHg , 1029.5 hPa
Clouds: Clear
Visibility: 10 miles , 16 km
2020/12/05 10:55 K1V6 051055Z AUTO 29009KT 10SM CLR 00/M11 A3040 RMK AO2
 
KPUB - Pueblo, Colorado, USA
Distance from station: SSE 44mi, 71km
Updated: 12/05/2020 3:53am
Clear
Clear
 Wind from W
Wind: W 8 mph , 13 km/h
Temperature: 27°F , -3°C
Wind Chill: 19°F , -7°C
Dew Point: 10°F , -12°C
Humidity: 50%
Barometer: 30.41 inHg , 1029.8 hPa
Clouds: Clear
Visibility: 10 miles , 16 km
2020/12/05 10:53 KPUB 051053Z AUTO 28007KT 10SM CLR M03/M12 A3041 RMK AO2 SLP295 T10331117
KAPA - Denver/Arapahoe, Colorado, USA
Distance from station: N 47mi, 75km
Updated: 12/05/2020 3:53am
Clear
Clear
 Wind from calm
Wind: Calm
Temperature: 27°F , -3°C
Dew Point: 14°F , -10°C
Humidity: 59%
Barometer: 30.42 inHg , 1030.1 hPa
Clouds: Clear
Visibility: 10 miles , 16 km
2020/12/05 10:53 KAPA 051053Z 00000KT 10SM CLR M03/M10 A3042 RMK AO2 SLP309 T10331100